Time;durP1;ratioP1;P1;durP2;ratioP2;P2;SDS_P1;SDS_P2;PMS_P1;PMS_P2;Temp;Humidity;BMP_temperature;BMP_pressure;BME280_temperature;BME280_humidity;BME280_pressure;Samples;Min_cycle;Max_cycle;Signal;HPM_P1;HPM_P2
2022/10/25 00:03:29;;;;;;;22.00;7.90;;;;;;;;;;10026504;28;20077;-73
2022/10/25 00:08:23;;;;;;;22.42;6.72;;;;;;;;;;10026498;28;20521;-73
2022/10/25 00:13:17;;;;;;;12.10;6.13;;;;;;;;;;10026881;28;20063;-72
2022/10/25 00:18:10;;;;;;;13.32;7.50;;;;;;;;;;10025837;28;20042;-72
2022/10/25 00:23:05;;;;;;;19.50;7.68;;;;;;;;;;10026303;28;20058;-73
2022/10/25 00:27:59;;;;;;;20.63;7.68;;;;;;;;;;10026662;28;20081;-72
2022/10/25 00:32:53;;;;;;;19.63;5.55;;;;;;;;;;10025510;28;20489;-72
2022/10/25 00:37:48;;;;;;;20.20;6.90;;;;;;;;;;10025656;28;20142;-72
2022/10/25 00:42:41;;;;;;;22.95;7.47;;;;;;;;;;10026191;28;20049;-72
2022/10/25 00:48:02;;;;;;;21.85;6.93;;;;;;;;;;10025658;28;20458;-72
2022/10/25 00:52:58;;;;;;;16.40;6.60;;;;;;;;;;10025642;28;20050;-72
2022/10/25 00:58:06;;;;;;;16.38;7.18;;;;;;;;;;10025360;28;20052;-72
2022/10/25 01:03:00;;;;;;;28.03;8.43;;;;;;;;;;10025618;28;20069;-75
2022/10/25 01:07:54;;;;;;;24.52;7.63;;;;;;;;;;10025589;28;20048;-73
2022/10/25 01:12:47;;;;;;;30.30;6.80;;;;;;;;;;10024724;28;20046;-74
2022/10/25 01:18:02;;;;;;;12.95;7.15;;;;;;;;;;10025317;28;20505;-74
2022/10/25 01:23:01;;;;;;;25.83;8.63;;;;;;;;;;10024297;28;20057;-74
2022/10/25 01:28:03;;;;;;;25.83;7.03;;;;;;;;;;10025862;28;20081;-74
2022/10/25 01:33:52;;;;;;;23.13;7.07;;;;;;;;;;10031575;28;20467;-74
2022/10/25 01:39:21;;;;;;;20.05;9.05;;;;;;;;;;9978250;28;20058;-72
2022/10/25 01:44:31;;;;;;;14.67;7.37;;;;;;;;;;10031969;28;20054;-73
2022/10/25 01:49:44;;;;;;;19.02;6.88;;;;;;;;;;10023684;28;20050;-72
2022/10/25 01:54:37;;;;;;;20.83;7.63;;;;;;;;;;10032006;28;20081;-73
2022/10/25 02:00:08;;;;;;;24.60;8.48;;;;;;;;;;10031209;28;20116;-74
2022/10/25 02:05:36;;;;;;;17.58;7.97;;;;;;;;;;9991061;28;20066;-74
2022/10/25 02:10:44;;;;;;;20.30;8.18;;;;;;;;;;10029721;28;20141;-76
2022/10/25 02:15:43;;;;;;;31.23;6.93;;;;;;;;;;10030053;28;20058;-77
2022/10/25 02:20:37;;;;;;;19.00;7.17;;;;;;;;;;10029142;28;20413;-77
2022/10/25 02:25:38;;;;;;;21.98;8.48;;;;;;;;;;10029745;28;20308;-77
2022/10/25 02:30:32;;;;;;;16.20;7.50;;;;;;;;;;10028685;28;20168;-76
2022/10/25 02:35:26;;;;;;;22.50;7.50;;;;;;;;;;10028958;28;20061;-75
2022/10/25 02:40:20;;;;;;;13.07;6.93;;;;;;;;;;10030271;28;20054;-75
2022/10/25 02:45:14;;;;;;;20.98;8.38;;;;;;;;;;10029849;28;20062;-74
2022/10/25 02:50:09;;;;;;;26.60;7.80;;;;;;;;;;10028927;28;20053;-74
2022/10/25 02:55:03;;;;;;;25.92;9.65;;;;;;;;;;10028993;28;20057;-75
2022/10/25 02:59:57;;;;;;;25.02;8.05;;;;;;;;;;10021828;28;20042;-75
2022/10/25 03:04:50;;;;;;;20.48;8.10;;;;;;;;;;10028281;28;20062;-75
2022/10/25 03:09:43;;;;;;;23.25;9.60;;;;;;;;;;10028129;28;20065;-74
2022/10/25 03:14:37;;;;;;;19.23;8.65;;;;;;;;;;10029288;28;20050;-74
2022/10/25 03:19:30;;;;;;;23.92;9.18;;;;;;;;;;10028814;28;20061;-74
2022/10/25 03:24:24;;;;;;;20.63;8.63;;;;;;;;;;10028480;28;20523;-74
2022/10/25 03:29:20;;;;;;;18.27;8.70;;;;;;;;;;10027900;28;20106;-74
2022/10/25 03:34:13;;;;;;;20.65;9.48;;;;;;;;;;10027672;28;20037;-74
2022/10/25 03:39:07;;;;;;;25.90;11.00;;;;;;;;;;10027560;28;20497;-74
2022/10/25 03:44:01;;;;;;;21.10;8.00;;;;;;;;;;10026880;28;20104;-73
2022/10/25 03:48:55;;;;;;;25.98;8.80;;;;;;;;;;10026911;28;20514;-72
2022/10/25 03:53:49;;;;;;;23.85;8.93;;;;;;;;;;10027008;28;20088;-73
2022/10/25 03:58:42;;;;;;;16.58;9.55;;;;;;;;;;10027290;28;20057;-73
2022/10/25 04:03:36;;;;;;;20.30;10.10;;;;;;;;;;10026776;28;20069;-73
2022/10/25 04:08:30;;;;;;;24.60;11.07;;;;;;;;;;10027026;28;20061;-73
2022/10/25 04:13:23;;;;;;;22.08;10.13;;;;;;;;;;10027351;28;20421;-74
2022/10/25 04:18:19;;;;;;;22.75;11.93;;;;;;;;;;10026076;28;20053;-73
2022/10/25 04:23:15;;;;;;;21.05;13.00;;;;;;;;;;10020541;28;20102;-73
2022/10/25 04:28:09;;;;;;;20.83;10.18;;;;;;;;;;10025723;28;20054;-74
2022/10/25 04:33:03;;;;;;;24.75;11.65;;;;;;;;;;10026371;28;20144;-75
2022/10/25 04:37:57;;;;;;;22.75;10.70;;;;;;;;;;10019551;28;20477;-73
2022/10/25 04:42:51;;;;;;;20.48;10.93;;;;;;;;;;10010179;28;20046;-75
2022/10/25 04:47:44;;;;;;;30.73;10.77;;;;;;;;;;10025334;28;20148;-74
2022/10/25 04:52:37;;;;;;;25.70;12.63;;;;;;;;;;10026238;28;20572;-75
2022/10/25 04:57:31;;;;;;;25.25;12.15;;;;;;;;;;10025923;28;20832;-75
2022/10/25 05:02:25;;;;;;;26.38;11.50;;;;;;;;;;10025205;28;20061;-75
2022/10/25 05:07:19;;;;;;;30.65;11.50;;;;;;;;;;10032590;28;20058;-72
2022/10/25 05:12:12;;;;;;;32.25;11.13;;;;;;;;;;10030576;28;20054;-74
2022/10/25 05:17:05;;;;;;;24.02;11.60;;;;;;;;;;10031890;28;20056;-75
2022/10/25 05:22:00;;;;;;;25.38;12.38;;;;;;;;;;10032095;28;20061;-74
2022/10/25 05:26:53;;;;;;;26.10;15.23;;;;;;;;;;10031330;28;20527;-74
2022/10/25 05:31:47;;;;;;;30.08;14.63;;;;;;;;;;10031272;28;20060;-74
2022/10/25 05:36:41;;;;;;;23.73;12.88;;;;;;;;;;10031182;28;20057;-74
2022/10/25 05:41:35;;;;;;;33.40;16.80;;;;;;;;;;10031372;28;20084;-74
2022/10/25 05:46:28;;;;;;;49.58;14.55;;;;;;;;;;10028737;28;20476;-76
2022/10/25 05:51:30;;;;;;;25.80;14.35;;;;;;;;;;10025296;28;20495;-74
2022/10/25 05:56:30;;;;;;;26.73;15.35;;;;;;;;;;10026362;28;20394;-75
2022/10/25 06:01:27;;;;;;;28.90;15.20;;;;;;;;;;10031014;28;20513;-74
2022/10/25 06:06:22;;;;;;;34.72;13.90;;;;;;;;;;10027991;28;20050;-75
2022/10/25 06:11:17;;;;;;;26.58;14.27;;;;;;;;;;10015123;28;20050;-74
2022/10/25 06:16:34;;;;;;;27.13;16.13;;;;;;;;;;10029649;28;20099;-74
2022/10/25 06:21:28;;;;;;;30.67;16.10;;;;;;;;;;10028208;28;20112;-73
2022/10/25 06:26:24;;;;;;;38.63;16.48;;;;;;;;;;10029799;28;20049;-76
2022/10/25 06:31:20;;;;;;;25.65;16.10;;;;;;;;;;10029328;28;20057;-83
2022/10/25 06:36:15;;;;;;;25.77;15.27;;;;;;;;;;10028178;28;20052;-79
2022/10/25 06:41:32;;;;;;;32.67;15.82;;;;;;;;;;10026784;28;20116;-79
2022/10/25 06:46:26;;;;;;;23.98;16.58;;;;;;;;;;10017875;28;20054;-79
2022/10/25 06:51:20;;;;;;;43.15;19.27;;;;;;;;;;10024191;28;20516;-78
2022/10/25 06:56:13;;;;;;;34.65;20.33;;;;;;;;;;10025193;28;20150;-81
2022/10/25 07:01:10;;;;;;;37.40;22.45;;;;;;;;;;10023549;28;20046;-81
2022/10/25 07:06:06;;;;;;;43.25;22.88;;;;;;;;;;10026149;28;20053;-82
2022/10/25 07:10:58;;;;;;;33.20;20.83;;;;;;;;;;10026499;28;20394;-82
2022/10/25 07:15:52;;;;;;;30.83;20.45;;;;;;;;;;10027544;28;20045;-81
2022/10/25 07:20:47;;;;;;;40.80;24.15;;;;;;;;;;10025267;28;20046;-82
2022/10/25 07:25:41;;;;;;;37.50;20.67;;;;;;;;;;10025820;28;20045;-82
2022/10/25 07:30:35;;;;;;;35.30;22.88;;;;;;;;;;10012755;28;20045;-83
2022/10/25 07:35:29;;;;;;;36.78;22.17;;;;;;;;;;10025442;28;20499;-82
2022/10/25 07:40:33;;;;;;;38.42;23.08;;;;;;;;;;10024897;28;20042;-83
2022/10/25 07:45:27;;;;;;;45.83;23.98;;;;;;;;;;10026063;28;20050;-83
2022/10/25 07:50:23;;;;;;;42.67;26.55;;;;;;;;;;10025268;28;20062;-83
2022/10/25 07:55:16;;;;;;;41.38;25.65;;;;;;;;;;10026091;28;20516;-83
2022/10/25 08:00:12;;;;;;;42.13;26.10;;;;;;;;;;10025166;28;20568;-83
2022/10/25 08:05:08;;;;;;;40.85;24.63;;;;;;;;;;10025926;28;20485;-83
2022/10/25 08:10:01;;;;;;;34.53;25.77;;;;;;;;;;10025722;28;20065;-84
2022/10/25 08:14:55;;;;;;;40.72;25.30;;;;;;;;;;10025044;28;20056;-83
2022/10/25 08:19:49;;;;;;;47.58;27.10;;;;;;;;;;10024801;28;20425;-83
2022/10/25 08:24:44;;;;;;;39.28;23.80;;;;;;;;;;10025722;28;20104;-81
2022/10/25 08:29:38;;;;;;;38.92;25.73;;;;;;;;;;10026071;28;20049;-79
2022/10/25 08:34:32;;;;;;;42.30;24.58;;;;;;;;;;10025757;28;20145;-83
2022/10/25 08:39:26;;;;;;;32.33;23.17;;;;;;;;;;10031123;28;20052;-83
2022/10/25 08:44:39;;;;;;;33.53;21.73;;;;;;;;;;10038258;28;20045;-82
2022/10/25 08:49:43;;;;;;;30.45;20.20;;;;;;;;;;10038255;28;20060;-83
2022/10/25 08:54:39;;;;;;;36.80;20.58;;;;;;;;;;10038550;28;20500;-81
2022/10/25 08:59:35;;;;;;;35.28;23.80;;;;;;;;;;10037882;28;20071;-83
2022/10/25 09:04:28;;;;;;;33.33;23.80;;;;;;;;;;10036645;28;20408;-83
2022/10/25 09:09:39;;;;;;;28.63;21.48;;;;;;;;;;10037830;28;20061;-73
2022/10/25 09:15:04;;;;;;;28.77;21.63;;;;;;;;;;10025810;28;20421;-74
2022/10/25 09:20:17;;;;;;;33.85;22.25;;;;;;;;;;10035882;28;20076;-74
2022/10/25 09:25:29;;;;;;;35.90;23.00;;;;;;;;;;10036538;28;20065;-74
2022/10/25 09:30:23;;;;;;;41.55;25.38;;;;;;;;;;10035815;28;20049;-74
2022/10/25 09:35:24;;;;;;;37.45;21.90;;;;;;;;;;10037216;28;20061;-73
2022/10/25 09:40:24;;;;;;;31.80;22.38;;;;;;;;;;10036816;28;20654;-74
2022/10/25 09:45:26;;;;;;;32.03;23.15;;;;;;;;;;10030701;28;20140;-73
2022/10/25 09:50:41;;;;;;;35.42;23.10;;;;;;;;;;10031610;28;20525;-74
2022/10/25 09:55:46;;;;;;;31.27;21.77;;;;;;;;;;10029849;28;20077;-74
2022/10/25 10:01:04;;;;;;;43.28;21.38;;;;;;;;;;10026203;28;20425;-75
2022/10/25 10:06:00;;;;;;;28.83;20.20;;;;;;;;;;10025881;28;20497;-75
2022/10/25 10:10:55;;;;;;;33.67;21.50;;;;;;;;;;10022702;28;20058;-73
2022/10/25 10:16:03;;;;;;;35.30;19.17;;;;;;;;;;10022438;28;20056;-75
2022/10/25 10:21:10;;;;;;;34.45;19.80;;;;;;;;;;10024403;28;20061;-75
2022/10/25 10:26:33;;;;;;;30.33;17.88;;;;;;;;;;10023762;28;20413;-75
2022/10/25 10:31:36;;;;;;;33.05;16.92;;;;;;;;;;10021487;28;20505;-75
2022/10/25 10:36:32;;;;;;;31.00;16.13;;;;;;;;;;10027460;28;20066;-75
2022/10/25 10:41:27;;;;;;;27.17;15.32;;;;;;;;;;10027889;28;20592;-76
2022/10/25 10:46:23;;;;;;;22.33;15.18;;;;;;;;;;10029714;28;20060;-74
2022/10/25 10:51:18;;;;;;;32.47;14.27;;;;;;;;;;10028171;28;20089;-74
2022/10/25 10:56:33;;;;;;;29.88;15.82;;;;;;;;;;10020311;28;20508;-74
2022/10/25 11:01:32;;;;;;;29.85;14.63;;;;;;;;;;10026845;28;20092;-73
2022/10/25 11:06:28;;;;;;;35.47;17.60;;;;;;;;;;10026700;28;20089;-75
2022/10/25 11:11:23;;;;;;;32.33;15.98;;;;;;;;;;10027504;28;20049;-76
2022/10/25 11:16:42;;;;;;;29.75;14.57;;;;;;;;;;10027334;28;20456;-75
2022/10/25 11:22:00;;;;;;;24.08;14.23;;;;;;;;;;10026195;28;20060;-75
2022/10/25 11:27:22;;;;;;;29.50;15.48;;;;;;;;;;10021733;28;20563;-75
2022/10/25 11:32:36;;;;;;;30.88;15.88;;;;;;;;;;10022788;28;20104;-74
2022/10/25 11:37:52;;;;;;;22.02;14.02;;;;;;;;;;10025858;28;20049;-75
2022/10/25 11:42:59;;;;;;;28.20;13.15;;;;;;;;;;10028043;28;20425;-75
2022/10/25 11:48:01;;;;;;;23.63;14.10;;;;;;;;;;10026268;28;20061;-74
2022/10/25 11:53:22;;;;;;;22.40;13.13;;;;;;;;;;10025736;28;20060;-74
2022/10/25 11:58:31;;;;;;;23.00;13.15;;;;;;;;;;10025359;28;20417;-74
2022/10/25 12:03:41;;;;;;;20.20;12.55;;;;;;;;;;10025539;28;20042;-74
2022/10/25 12:08:49;;;;;;;27.67;13.60;;;;;;;;;;10024632;28;20060;-73
2022/10/25 12:13:50;;;;;;;24.40;14.10;;;;;;;;;;10023514;28;20045;-74
2022/10/25 12:18:46;;;;;;;25.17;14.05;;;;;;;;;;10024856;28;20050;-76
2022/10/25 12:23:45;;;;;;;28.80;13.80;;;;;;;;;;10025326;28;20066;-78
2022/10/25 12:28:43;;;;;;;25.83;13.20;;;;;;;;;;10025247;28;20085;-74
2022/10/25 12:33:58;;;;;;;26.02;13.43;;;;;;;;;;10025948;28;20077;-75
2022/10/25 12:38:52;;;;;;;26.50;14.93;;;;;;;;;;10024829;28;20096;-74
2022/10/25 12:44:24;;;;;;;25.20;13.77;;;;;;;;;;10024208;28;20068;-75
2022/10/25 12:49:32;;;;;;;27.02;11.00;;;;;;;;;;9909418;28;20051;-76
2022/10/25 12:54:36;;;;;;;17.98;10.77;;;;;;;;;;10023838;28;20088;-75
2022/10/25 12:59:41;;;;;;;16.27;9.52;;;;;;;;;;10022882;28;20104;-73
2022/10/25 13:05:04;;;;;;;14.52;9.05;;;;;;;;;;10025079;28;20471;-76
2022/10/25 13:10:06;;;;;;;16.08;9.18;;;;;;;;;;10024653;28;20563;-76
2022/10/25 13:15:00;;;;;;;29.45;9.52;;;;;;;;;;10023736;28;20058;-76
2022/10/25 13:20:15;;;;;;;22.83;8.98;;;;;;;;;;10022623;28;20046;-74
2022/10/25 13:25:07;;;;;;;19.42;9.65;;;;;;;;;;10025704;28;20045;-76
2022/10/25 13:30:05;;;;;;;20.42;8.65;;;;;;;;;;10030924;28;20057;-77
2022/10/25 13:35:01;;;;;;;19.67;8.55;;;;;;;;;;10031088;28;20060;-76
2022/10/25 13:39:55;;;;;;;18.30;9.25;;;;;;;;;;10028605;28;20520;-76
2022/10/25 13:45:02;;;;;;;16.77;9.00;;;;;;;;;;10024233;28;20513;-75
2022/10/25 13:49:57;;;;;;;18.27;8.30;;;;;;;;;;10028065;28;20054;-64
2022/10/25 13:54:57;;;;;;;19.27;8.60;;;;;;;;;;10029720;28;20049;-63
2022/10/25 13:59:59;;;;;;;13.13;7.55;;;;;;;;;;10030237;28;20400;-63
2022/10/25 14:05:13;;;;;;;18.40;8.07;;;;;;;;;;10028200;28;20096;-64
2022/10/25 14:10:20;;;;;;;16.05;7.57;;;;;;;;;;10023314;28;20084;-63
2022/10/25 14:15:57;;;;;;;22.52;8.25;;;;;;;;;;10028351;28;20053;-63
2022/10/25 14:21:23;;;;;;;17.10;7.00;;;;;;;;;;10029463;28;20085;-69
2022/10/25 14:26:20;;;;;;;20.48;7.70;;;;;;;;;;10021270;28;20050;-68
2022/10/25 14:31:19;;;;;;;21.52;6.97;;;;;;;;;;10015977;28;20046;-68
2022/10/25 14:36:30;;;;;;;12.57;7.38;;;;;;;;;;10013884;28;20046;-68
2022/10/25 14:41:51;;;;;;;13.65;6.22;;;;;;;;;;10023936;28;20173;-68
2022/10/25 14:46:45;;;;;;;12.85;6.30;;;;;;;;;;10028368;28;20049;-67
2022/10/25 14:51:41;;;;;;;18.05;7.22;;;;;;;;;;10021200;28;20161;-68
2022/10/25 14:56:54;;;;;;;24.00;8.13;;;;;;;;;;10042443;28;20088;-67
2022/10/25 15:02:04;;;;;;;13.13;6.10;;;;;;;;;;10023476;28;20045;-68
2022/10/25 15:06:57;;;;;;;14.43;7.82;;;;;;;;;;10021410;28;20563;-67
2022/10/25 15:12:09;;;;;;;39.60;10.68;;;;;;;;;;10014368;28;20060;-68
2022/10/25 15:17:13;;;;;;;17.08;7.45;;;;;;;;;;10016189;28;20058;-69
2022/10/25 15:22:13;;;;;;;16.40;6.75;;;;;;;;;;10023874;28;20065;-69
2022/10/25 15:27:35;;;;;;;23.75;7.95;;;;;;;;;;10042898;28;20053;-68
2022/10/25 15:32:29;;;;;;;25.15;7.97;;;;;;;;;;10019279;28;20065;-68
2022/10/25 15:37:23;;;;;;;29.38;8.68;;;;;;;;;;10017143;28;20056;-67
2022/10/25 15:42:17;;;;;;;31.80;9.00;;;;;;;;;;10013304;28;20140;-68
2022/10/25 15:47:22;;;;;;;17.13;6.28;;;;;;;;;;10016593;28;20058;-67
2022/10/25 15:52:16;;;;;;;25.02;7.70;;;;;;;;;;10055490;28;20493;-69
2022/10/25 15:57:11;;;;;;;18.05;6.55;;;;;;;;;;10026094;28;20092;-69
2022/10/25 16:02:14;;;;;;;26.80;9.13;;;;;;;;;;10025599;28;20049;-69
2022/10/25 16:07:10;;;;;;;20.88;10.70;;;;;;;;;;10024247;28;20054;-69
2022/10/25 16:12:05;;;;;;;24.98;10.98;;;;;;;;;;10025812;28;20089;-69
2022/10/25 16:17:19;;;;;;;14.55;8.73;;;;;;;;;;10046369;28;20046;-68
2022/10/25 16:22:13;;;;;;;25.38;9.38;;;;;;;;;;10026290;28;20062;-68
2022/10/25 16:27:09;;;;;;;17.05;9.77;;;;;;;;;;10018807;28;20049;-68
2022/10/25 16:32:04;;;;;;;19.48;8.50;;;;;;;;;;9992973;28;20124;-68
2022/10/25 16:36:57;;;;;;;19.25;9.00;;;;;;;;;;10057014;28;20050;-68
2022/10/25 16:41:53;;;;;;;13.80;7.72;;;;;;;;;;10016387;28;20070;-67
2022/10/25 16:46:47;;;;;;;16.75;8.32;;;;;;;;;;10032959;28;20449;-69
2022/10/25 16:51:40;;;;;;;15.20;7.25;;;;;;;;;;10089031;28;20412;-76
2022/10/25 16:56:34;;;;;;;20.60;8.45;;;;;;;;;;10045684;28;20439;-67
2022/10/25 17:01:33;;;;;;;19.77;10.30;;;;;;;;;;10067104;28;20049;-67
2022/10/25 17:06:26;;;;;;;17.63;8.88;;;;;;;;;;10054435;28;20060;-75
2022/10/25 17:11:34;;;;;;;19.92;8.68;;;;;;;;;;10032604;28;20057;-68
2022/10/25 17:16:28;;;;;;;21.13;9.40;;;;;;;;;;10022337;28;20050;-68
2022/10/25 17:21:22;;;;;;;27.92;10.05;;;;;;;;;;10021745;28;20050;-67
2022/10/25 17:26:15;;;;;;;24.83;9.68;;;;;;;;;;10018983;28;20049;-68
2022/10/25 17:31:10;;;;;;;19.02;10.07;;;;;;;;;;10023763;28;20066;-68
2022/10/25 17:36:08;;;;;;;13.05;9.18;;;;;;;;;;10016745;28;20508;-68
2022/10/25 17:41:03;;;;;;;22.20;8.32;;;;;;;;;;10033181;28;20544;-68
2022/10/25 17:46:01;;;;;;;20.15;9.20;;;;;;;;;;10026951;28;20081;-69
2022/10/25 17:50:53;;;;;;;19.85;8.93;;;;;;;;;;10036235;28;20057;-68
2022/10/25 17:55:47;;;;;;;24.58;9.50;;;;;;;;;;10027987;28;20096;-69
2022/10/25 18:00:41;;;;;;;18.15;9.45;;;;;;;;;;10026846;28;20161;-69
2022/10/25 18:05:38;;;;;;;15.02;8.07;;;;;;;;;;10015951;28;20050;-69
2022/10/25 18:10:33;;;;;;;16.38;9.77;;;;;;;;;;10026533;28;20092;-69
2022/10/25 18:15:28;;;;;;;23.15;8.55;;;;;;;;;;10025356;28;20049;-69
2022/10/25 18:20:24;;;;;;;18.83;9.27;;;;;;;;;;10035809;28;20077;-69
2022/10/25 18:25:18;;;;;;;21.90;9.15;;;;;;;;;;10030373;28;20077;-70
2022/10/25 18:30:12;;;;;;;19.80;8.23;;;;;;;;;;10026232;28;20080;-69
2022/10/25 18:35:08;;;;;;;28.90;11.23;;;;;;;;;;10028150;28;20049;-69
2022/10/25 18:40:01;;;;;;;25.02;9.88;;;;;;;;;;10034740;28;20135;-68
2022/10/25 18:44:55;;;;;;;17.55;9.35;;;;;;;;;;10033067;28;20046;-68
2022/10/25 18:49:50;;;;;;;16.73;9.07;;;;;;;;;;10026550;28;20049;-67
2022/10/25 18:54:43;;;;;;;25.65;9.88;;;;;;;;;;10042772;28;20088;-68
2022/10/25 18:59:38;;;;;;;19.08;9.90;;;;;;;;;;10032822;28;20057;-68
2022/10/25 19:04:32;;;;;;;17.70;9.60;;;;;;;;;;10033568;28;20041;-68
2022/10/25 19:09:26;;;;;;;16.10;9.32;;;;;;;;;;10033361;28;20056;-68
2022/10/25 19:14:20;;;;;;;19.00;9.60;;;;;;;;;;10034841;28;20054;-67
2022/10/25 19:19:13;;;;;;;23.95;9.60;;;;;;;;;;10036647;28;20394;-67
2022/10/25 19:24:12;;;;;;;13.25;9.32;;;;;;;;;;10034041;28;20076;-67
2022/10/25 19:29:06;;;;;;;22.20;10.93;;;;;;;;;;10033211;28;20129;-67
2022/10/25 19:34:02;;;;;;;15.27;9.30;;;;;;;;;;10039938;28;20405;-67
2022/10/25 19:38:56;;;;;;;19.58;11.55;;;;;;;;;;10057601;28;20052;-67
2022/10/25 19:43:51;;;;;;;17.45;10.00;;;;;;;;;;10043197;28;20050;-67
2022/10/25 19:48:48;;;;;;;11.30;9.43;;;;;;;;;;10037459;28;20517;-68
2022/10/25 19:53:41;;;;;;;14.30;9.32;;;;;;;;;;10031488;28;20477;-67
2022/10/25 19:58:34;;;;;;;15.57;8.90;;;;;;;;;;10040663;28;20086;-67
2022/10/25 20:03:29;;;;;;;17.35;8.55;;;;;;;;;;10034376;28;20767;-67
2022/10/25 20:08:23;;;;;;;18.42;8.57;;;;;;;;;;10035966;28;20447;-67
2022/10/25 20:13:18;;;;;;;14.38;8.00;;;;;;;;;;10031765;28;20045;-68
2022/10/25 20:18:12;;;;;;;61.70;12.30;;;;;;;;;;10033189;28;20057;-68
2022/10/25 20:23:05;;;;;;;18.85;9.20;;;;;;;;;;10035724;28;20081;-68
2022/10/25 20:28:01;;;;;;;19.13;10.10;;;;;;;;;;10031506;28;20076;-67
2022/10/25 20:32:55;;;;;;;18.33;8.98;;;;;;;;;;10032114;28;20056;-68
2022/10/25 20:37:49;;;;;;;23.67;9.98;;;;;;;;;;10030815;28;20509;-68
2022/10/25 20:42:43;;;;;;;20.27;12.43;;;;;;;;;;10024835;28;20493;-67
2022/10/25 20:47:37;;;;;;;20.13;10.65;;;;;;;;;;10021005;28;20074;-67
2022/10/25 20:52:30;;;;;;;14.80;8.52;;;;;;;;;;10026171;28;20045;-68
2022/10/25 20:57:26;;;;;;;25.60;10.93;;;;;;;;;;10018220;28;20054;-68
2022/10/25 21:02:19;;;;;;;20.23;11.25;;;;;;;;;;10022293;28;20109;-68
2022/10/25 21:07:14;;;;;;;20.42;10.68;;;;;;;;;;10024230;28;20247;-68
2022/10/25 21:12:07;;;;;;;25.25;9.98;;;;;;;;;;10015461;28;20100;-68
2022/10/25 21:17:03;;;;;;;18.58;12.18;;;;;;;;;;10017926;28;20064;-68
2022/10/25 21:21:55;;;;;;;18.27;9.45;;;;;;;;;;10017544;28;20097;-68
2022/10/25 21:26:50;;;;;;;15.13;9.82;;;;;;;;;;10018554;28;20058;-68
2022/10/25 21:31:44;;;;;;;21.27;10.98;;;;;;;;;;10020652;28;20056;-68
2022/10/25 21:36:38;;;;;;;21.48;13.02;;;;;;;;;;10027885;28;20099;-68
2022/10/25 21:41:32;;;;;;;20.02;11.73;;;;;;;;;;10036389;28;20046;-69
2022/10/25 21:46:27;;;;;;;23.00;13.82;;;;;;;;;;10030876;28;20386;-68
2022/10/25 21:51:23;;;;;;;24.27;10.65;;;;;;;;;;10034229;28;20408;-68
2022/10/25 21:56:18;;;;;;;15.57;11.35;;;;;;;;;;10030241;28;20053;-68
2022/10/25 22:01:19;;;;;;;21.67;12.25;;;;;;;;;;10031920;28;20057;-68
2022/10/25 22:06:17;;;;;;;17.42;12.55;;;;;;;;;;10030999;28;20046;-68
2022/10/25 22:11:13;;;;;;;24.15;13.88;;;;;;;;;;10033648;28;20057;-68
2022/10/25 22:16:09;;;;;;;22.13;13.75;;;;;;;;;;10028844;28;20181;-68
2022/10/25 22:21:05;;;;;;;26.55;15.50;;;;;;;;;;10038702;28;20053;-68
2022/10/25 22:26:19;;;;;;;24.52;14.60;;;;;;;;;;10053633;28;20456;-68
2022/10/25 22:31:16;;;;;;;22.88;15.15;;;;;;;;;;10030995;28;20058;-68
2022/10/25 22:36:17;;;;;;;21.53;13.97;;;;;;;;;;10056218;28;20119;-68
2022/10/25 22:41:13;;;;;;;26.98;16.52;;;;;;;;;;10062596;28;20107;-68
2022/10/25 22:46:12;;;;;;;28.55;14.15;;;;;;;;;;10053833;28;20049;-68
2022/10/25 22:51:06;;;;;;;22.90;12.18;;;;;;;;;;10054465;28;20515;-68
2022/10/25 22:56:02;;;;;;;21.80;12.55;;;;;;;;;;10044523;28;20472;-68
2022/10/25 23:01:15;;;;;;;26.88;16.13;;;;;;;;;;10056315;28;20055;-68
2022/10/25 23:06:11;;;;;;;23.13;15.07;;;;;;;;;;10047092;28;20088;-68
2022/10/25 23:11:10;;;;;;;26.85;15.45;;;;;;;;;;10044758;28;20049;-68
2022/10/25 23:16:03;;;;;;;29.02;19.75;;;;;;;;;;10057068;28;20378;-68
2022/10/25 23:20:59;;;;;;;36.22;19.23;;;;;;;;;;10052268;28;20053;-68
2022/10/25 23:25:53;;;;;;;40.40;21.80;;;;;;;;;;10058493;28;20131;-70
2022/10/25 23:30:47;;;;;;;32.80;19.77;;;;;;;;;;10060657;28;20087;-68
2022/10/25 23:35:41;;;;;;;29.33;18.88;;;;;;;;;;10032866;28;20080;-68
2022/10/25 23:40:35;;;;;;;39.33;20.67;;;;;;;;;;10028166;28;20049;-68
2022/10/25 23:45:30;;;;;;;29.15;20.55;;;;;;;;;;10038171;28;20484;-68
2022/10/25 23:50:25;;;;;;;28.15;18.70;;;;;;;;;;10059993;28;20053;-68
2022/10/25 23:55:18;;;;;;;32.17;18.77;;;;;;;;;;10042189;28;20054;-68
